createdAt,value
2022-08-26T00:00:30.935Z,15.73
2022-08-26T00:02:58.349Z,14.30
2022-08-26T00:05:25.427Z,14.27
2022-08-26T00:07:52.945Z,14.68
2022-08-26T00:10:20.808Z,14.52
2022-08-26T00:12:52.377Z,14.30
2022-08-26T00:15:21.644Z,13.65
2022-08-26T00:17:50.323Z,14.45
2022-08-26T00:20:21.129Z,14.00
2022-08-26T00:22:47.827Z,15.63
2022-08-26T00:25:17.295Z,14.85
2022-08-26T00:27:44.141Z,13.90
2022-08-26T00:30:13.709Z,15.18
2022-08-26T00:32:44.026Z,15.63
2022-08-26T00:35:13.470Z,15.15
2022-08-26T00:37:41.701Z,13.63
2022-08-26T00:40:12.576Z,14.18
2022-08-26T00:42:39.245Z,15.10
2022-08-26T00:45:14.211Z,15.18
2022-08-26T00:47:51.705Z,15.32
2022-08-26T00:50:22.863Z,15.73
2022-08-26T00:52:50.816Z,14.00
2022-08-26T00:55:21.638Z,14.32
2022-08-26T00:57:50.690Z,13.88
2022-08-26T01:00:20.938Z,14.70
2022-08-26T01:02:49.940Z,13.38
2022-08-26T01:05:18.373Z,13.05
2022-08-26T01:07:46.213Z,14.13
2022-08-26T01:10:16.674Z,13.77
2022-08-26T01:12:47.831Z,14.93
2022-08-26T01:15:19.083Z,13.38
2022-08-26T01:17:46.011Z,13.57
2022-08-26T01:20:27.323Z,14.15
2022-08-26T01:22:57.787Z,13.77
2022-08-26T01:25:26.219Z,16.13
2022-08-26T01:27:55.802Z,14.02
2022-08-26T01:30:24.998Z,15.20
2022-08-26T01:32:52.112Z,13.23
2022-08-26T01:35:19.187Z,14.75
2022-08-26T01:37:50.191Z,14.40
2022-08-26T01:40:24.670Z,14.32
2022-08-26T01:42:53.545Z,14.30
2022-08-26T01:45:24.167Z,14.02
2022-08-26T01:47:56.588Z,14.30
2022-08-26T01:50:30.334Z,13.18
2022-08-26T01:52:58.891Z,14.10
2022-08-26T01:55:32.775Z,14.90
2022-08-26T01:58:03.305Z,15.32
2022-08-26T02:00:29.915Z,13.88
2022-08-26T02:02:57.752Z,14.32
2022-08-26T02:05:24.461Z,14.48
2022-08-26T02:07:51.071Z,13.90
2022-08-26T02:10:17.636Z,13.32
2022-08-26T02:12:48.652Z,13.30
2022-08-26T02:15:15.203Z,14.60
2022-08-26T02:17:46.877Z,13.88
2022-08-26T02:20:18.093Z,13.25
2022-08-26T02:22:45.376Z,15.23
2022-08-26T02:25:18.057Z,14.85
2022-08-26T02:27:47.824Z,13.77
2022-08-26T02:30:17.770Z,13.80
2022-08-26T02:32:44.733Z,13.80
2022-08-26T02:35:13.797Z,14.02
2022-08-26T02:37:47.248Z,14.13
2022-08-26T02:40:18.217Z,15.38
2022-08-26T02:42:44.976Z,13.63
2022-08-26T02:45:12.892Z,14.07
2022-08-26T02:47:39.611Z,13.32
2022-08-26T02:50:07.415Z,14.77
2022-08-26T02:52:34.676Z,13.93
2022-08-26T02:55:01.308Z,14.27
2022-08-26T02:57:28.902Z,14.88
2022-08-26T02:59:55.451Z,14.68
2022-08-26T03:02:24.042Z,14.60
2022-08-26T03:04:57.770Z,14.20
2022-08-26T03:07:28.775Z,14.40
2022-08-26T03:09:56.498Z,14.27
2022-08-26T03:12:23.155Z,16.45
2022-08-26T03:14:49.749Z,14.70
2022-08-26T03:17:16.335Z,14.02
2022-08-26T03:19:44.231Z,13.73
2022-08-26T03:22:11.206Z,13.85
2022-08-26T03:24:37.949Z,20.10
2022-08-26T03:27:05.995Z,16.60
2022-08-26T03:29:33.988Z,15.43
2022-08-26T03:32:00.555Z,15.00
2022-08-26T03:34:27.284Z,15.38
2022-08-26T03:36:55.740Z,14.18
2022-08-26T03:39:23.102Z,14.70
2022-08-26T03:41:49.678Z,14.18
2022-08-26T03:44:17.716Z,15.13
2022-08-26T03:46:44.441Z,15.50
2022-08-26T03:49:11.644Z,14.32
2022-08-26T03:51:38.705Z,16.10
2022-08-26T03:54:08.359Z,16.25
2022-08-26T03:56:35.604Z,16.10
2022-08-26T03:59:02.674Z,15.88
2022-08-26T04:01:30.230Z,16.17
2022-08-26T04:04:00.060Z,15.10
2022-08-26T04:06:28.758Z,14.80
2022-08-26T04:08:56.420Z,15.85
2022-08-26T04:11:27.635Z,16.35
2022-08-26T04:13:55.088Z,15.55
2022-08-26T04:16:21.933Z,16.50
2022-08-26T04:18:49.388Z,16.88
2022-08-26T04:21:15.960Z,15.57
2022-08-26T04:23:47.654Z,15.77
2022-08-26T04:26:14.805Z,15.77
2022-08-26T04:28:42.747Z,15.73
2022-08-26T04:31:10.879Z,15.95
2022-08-26T04:33:41.730Z,15.98
2022-08-26T04:36:09.135Z,15.93
2022-08-26T04:38:36.186Z,16.27
2022-08-26T04:41:05.426Z,16.70
2022-08-26T04:43:32.173Z,15.85
2022-08-26T04:46:02.828Z,15.48
2022-08-26T04:48:30.819Z,15.80
2022-08-26T04:50:57.409Z,15.98
2022-08-26T04:53:26.078Z,15.07
2022-08-26T04:55:55.254Z,15.40
2022-08-26T04:58:23.285Z,15.20
2022-08-26T05:00:52.620Z,16.75
2022-08-26T05:03:22.300Z,15.57
2022-08-26T05:05:49.613Z,15.40
2022-08-26T05:08:18.029Z,16.42
2022-08-26T05:10:47.453Z,17.38
2022-08-26T05:13:15.900Z,18.17
2022-08-26T05:15:44.062Z,17.17
2022-08-26T05:18:11.184Z,16.88
2022-08-26T05:20:41.600Z,17.85
2022-08-26T05:23:08.884Z,16.40
2022-08-26T05:25:38.033Z,15.95
2022-08-26T05:28:04.668Z,16.23
2022-08-26T05:30:32.243Z,16.70
2022-08-26T05:32:59.177Z,18.67
2022-08-26T05:35:28.266Z,18.48
2022-08-26T05:38:00.030Z,20.63
2022-08-26T05:40:27.629Z,19.42
2022-08-26T05:42:55.304Z,18.77
2022-08-26T05:45:21.872Z,19.38
2022-08-26T05:47:49.663Z,19.58
2022-08-26T05:50:17.757Z,19.05
2022-08-26T05:52:44.525Z,19.67
2022-08-26T05:55:12.437Z,19.15
2022-08-26T05:57:42.825Z,20.15
2022-08-26T06:00:11.019Z,19.83
2022-08-26T06:02:37.653Z,19.30
2022-08-26T06:05:04.754Z,19.13
2022-08-26T06:07:34.184Z,19.70
2022-08-26T06:10:28.295Z,18.20
2022-08-26T06:12:48.795Z,17.88
2022-08-26T06:15:15.614Z,18.00
2022-08-26T06:17:42.263Z,16.85
2022-08-26T06:20:10.287Z,18.58
2022-08-26T06:22:36.988Z,19.33
2022-08-26T06:25:03.814Z,18.00
2022-08-26T06:27:32.774Z,19.40
2022-08-26T06:30:00.835Z,18.83
2022-08-26T06:32:27.461Z,17.60
2022-08-26T06:34:53.997Z,16.73
2022-08-26T06:37:20.585Z,17.33
2022-08-26T06:39:47.594Z,18.27
2022-08-26T06:42:17.837Z,16.60
2022-08-26T06:44:44.972Z,15.95
2022-08-26T06:47:12.937Z,17.63
2022-08-26T06:49:39.840Z,16.27
2022-08-26T06:52:06.464Z,16.52
2022-08-26T06:54:33.018Z,16.13
2022-08-26T06:57:00.126Z,15.95
2022-08-26T06:59:26.764Z,16.00
2022-08-26T07:01:53.711Z,17.55
2022-08-26T07:04:23.256Z,16.15
2022-08-26T07:06:53.386Z,16.08
2022-08-26T07:09:22.586Z,16.73
2022-08-26T07:11:49.411Z,16.35
2022-08-26T07:14:16.019Z,16.88
2022-08-26T07:16:42.557Z,16.80
2022-08-26T07:19:11.086Z,16.85
2022-08-26T07:21:40.460Z,15.93
2022-08-26T07:24:07.232Z,16.15
2022-08-26T07:26:33.801Z,16.88
2022-08-26T07:29:01.655Z,16.48
2022-08-26T07:31:33.609Z,15.07
2022-08-26T07:34:05.687Z,15.88
2022-08-26T07:36:32.240Z,15.70
2022-08-26T07:39:00.118Z,15.68
2022-08-26T07:41:26.979Z,16.65
2022-08-26T07:43:54.458Z,14.52
2022-08-26T07:46:27.064Z,15.05
2022-08-26T07:48:57.380Z,15.13
2022-08-26T07:51:24.404Z,14.60
2022-08-26T07:53:52.897Z,14.38
2022-08-26T07:56:22.027Z,14.20
2022-08-26T07:58:51.415Z,15.05
2022-08-26T08:01:18.901Z,14.25
2022-08-26T08:03:45.524Z,14.30
2022-08-26T08:06:12.367Z,14.70
2022-08-26T08:08:38.921Z,13.60
2022-08-26T08:11:06.404Z,14.38
2022-08-26T08:13:34.620Z,14.38
2022-08-26T08:16:01.211Z,12.40
2022-08-26T08:18:27.743Z,12.98
2022-08-26T08:20:59.138Z,13.18
2022-08-26T08:23:25.929Z,11.82
2022-08-26T08:26:00.457Z,12.38
2022-08-26T08:28:27.052Z,11.38
2022-08-26T08:30:55.073Z,10.35
2022-08-26T08:33:21.659Z,11.73
2022-08-26T08:35:48.462Z,11.63
2022-08-26T08:38:15.433Z,12.00
2022-08-26T08:40:44.819Z,11.68
2022-08-26T08:43:13.303Z,11.73
2022-08-26T08:45:47.152Z,10.95
2022-08-26T08:48:24.325Z,10.40
2022-08-26T08:50:58.765Z,10.75
2022-08-26T08:53:31.955Z,10.90
2022-08-26T08:56:04.811Z,10.45
2022-08-26T08:58:46.419Z,10.77
2022-08-26T09:01:24.918Z,11.05
2022-08-26T09:04:03.855Z,11.32
2022-08-26T09:06:30.869Z,11.40
2022-08-26T09:08:57.708Z,10.90
2022-08-26T09:11:24.239Z,10.63
2022-08-26T09:13:55.050Z,10.85
2022-08-26T09:16:27.232Z,10.65
2022-08-26T09:19:19.027Z,10.43
2022-08-26T09:21:45.881Z,10.52
2022-08-26T09:24:13.996Z,11.00
2022-08-26T09:26:47.378Z,10.02
2022-08-26T09:31:48.646Z,9.50
2022-08-26T09:34:20.952Z,9.80
2022-08-26T09:36:49.668Z,10.02
2022-08-26T09:39:31.887Z,11.77
2022-08-26T09:42:07.006Z,9.20
2022-08-26T09:44:35.050Z,10.45
2022-08-26T09:47:04.714Z,11.27
2022-08-26T09:49:36.471Z,12.05
2022-08-26T09:52:15.570Z,11.50
2022-08-26T09:54:43.524Z,11.85
2022-08-26T09:57:17.500Z,11.55
2022-08-26T10:02:23.628Z,10.98
2022-08-26T10:04:55.926Z,11.82
2022-08-26T10:07:42.223Z,11.10
2022-08-26T10:10:13.614Z,10.88
2022-08-26T10:15:15.201Z,11.55
2022-08-26T10:17:47.361Z,11.18
2022-08-26T10:20:23.220Z,11.05
2022-08-26T10:22:58.553Z,11.43
2022-08-26T10:25:31.717Z,11.63
2022-08-26T10:28:04.117Z,11.65
2022-08-26T10:30:37.129Z,12.48
2022-08-26T10:33:07.233Z,10.63
2022-08-26T10:35:40.467Z,10.40
2022-08-26T10:38:11.131Z,10.93
2022-08-26T10:40:46.616Z,11.30
2022-08-26T10:43:19.112Z,10.63
2022-08-26T10:45:50.015Z,11.05
2022-08-26T10:50:49.580Z,11.35
2022-08-26T10:53:25.130Z,9.75
2022-08-26T10:55:59.581Z,10.45
2022-08-26T10:58:41.018Z,10.73
2022-08-26T11:01:22.710Z,10.35
2022-08-26T11:03:58.384Z,10.75
2022-08-26T11:06:29.054Z,10.18
2022-08-26T11:08:57.767Z,10.43
2022-08-26T11:11:48.128Z,11.60
2022-08-26T11:14:34.200Z,10.63
2022-08-26T11:17:12.693Z,10.23
2022-08-26T11:20:03.326Z,10.77
2022-08-26T11:22:37.430Z,11.05
2022-08-26T11:25:11.579Z,10.55
2022-08-26T11:27:53.959Z,10.55
2022-08-26T11:30:40.109Z,10.50
2022-08-26T11:33:06.860Z,11.88
2022-08-26T11:35:49.389Z,10.93
2022-08-26T11:38:22.478Z,11.13
2022-08-26T11:41:07.873Z,11.18
2022-08-26T11:43:35.864Z,11.45
2022-08-26T11:46:05.617Z,11.45
2022-08-26T11:48:36.179Z,11.73
2022-08-26T11:51:05.621Z,11.85
2022-08-26T11:53:37.753Z,11.82
2022-08-26T11:56:08.570Z,12.43
2022-08-26T12:02:04.367Z,5.25
2022-08-26T12:04:36.250Z,5.88
2022-08-26T12:07:04.664Z,6.15
2022-08-26T12:12:54.183Z,5.38
2022-08-26T12:15:20.778Z,6.85
2022-08-26T12:17:52.993Z,6.20
2022-08-26T12:20:31.293Z,7.03
2022-08-26T12:22:58.500Z,8.63
2022-08-26T12:25:26.305Z,7.13
2022-08-26T12:27:54.239Z,7.45
2022-08-26T12:30:22.789Z,6.63
2022-08-26T12:32:57.642Z,7.38
2022-08-26T12:35:25.683Z,7.80
2022-08-26T12:37:53.906Z,7.65
2022-08-26T12:40:35.194Z,7.63
2022-08-26T12:43:05.281Z,7.80
2022-08-26T12:45:34.045Z,8.07
2022-08-26T12:48:05.985Z,7.47
2022-08-26T12:50:34.664Z,7.57
2022-08-26T12:53:04.839Z,7.97
2022-08-26T12:55:40.950Z,8.68
2022-08-26T12:58:21.554Z,8.63
2022-08-26T13:00:49.287Z,9.88
2022-08-26T13:03:37.976Z,9.70
2022-08-26T13:06:15.672Z,9.93
2022-08-26T13:08:44.167Z,9.90
2022-08-26T13:11:14.142Z,9.73
2022-08-26T13:13:42.013Z,9.90
2022-08-26T13:16:08.569Z,9.10
2022-08-26T13:18:35.171Z,9.23
2022-08-26T13:21:08.636Z,9.45
2022-08-26T13:23:38.390Z,9.50
2022-08-26T13:26:07.236Z,9.32
2022-08-26T13:28:33.841Z,10.43
2022-08-26T13:31:01.964Z,9.88
2022-08-26T13:33:28.669Z,9.93
2022-08-26T13:35:55.251Z,10.60
2022-08-26T13:38:32.964Z,9.75
2022-08-26T13:41:00.324Z,9.93
2022-08-26T13:43:27.441Z,10.35
2022-08-26T13:45:54.281Z,11.10
2022-08-26T13:48:23.515Z,10.27
2022-08-26T13:50:50.485Z,10.80
2022-08-26T13:53:17.346Z,11.05
2022-08-26T13:55:43.912Z,10.32
2022-08-26T13:58:10.781Z,10.13
2022-08-26T14:00:38.135Z,10.70
2022-08-26T14:03:05.634Z,10.65
2022-08-26T14:05:36.138Z,10.30
2022-08-26T14:08:03.677Z,10.18
2022-08-26T14:10:30.266Z,10.00
2022-08-26T14:12:56.826Z,11.40
2022-08-26T14:15:23.461Z,10.80
2022-08-26T14:17:51.605Z,12.85
2022-08-26T14:20:23.569Z,11.13
2022-08-26T14:23:12.503Z,11.80
2022-08-26T14:25:38.221Z,11.27
2022-08-26T14:28:04.733Z,9.93
2022-08-26T14:30:31.673Z,11.27
2022-08-26T14:32:58.891Z,11.25
2022-08-26T14:35:27.806Z,11.15
2022-08-26T14:37:56.462Z,10.82
2022-08-26T14:40:27.168Z,11.60
2022-08-26T14:42:54.361Z,9.90
2022-08-26T14:45:23.805Z,10.48
2022-08-26T14:47:51.797Z,9.98
2022-08-26T14:50:21.382Z,10.65
2022-08-26T14:52:48.074Z,10.15
2022-08-26T14:55:15.974Z,10.80
2022-08-26T14:57:42.488Z,10.27
2022-08-26T15:00:10.373Z,10.38
2022-08-26T15:02:36.945Z,10.93
2022-08-26T15:05:03.857Z,11.32
2022-08-26T15:07:30.972Z,12.93
2022-08-26T15:09:57.918Z,13.10
2022-08-26T15:12:25.850Z,13.80
2022-08-26T15:14:52.354Z,12.73
2022-08-26T15:17:18.898Z,12.95
2022-08-26T15:19:45.413Z,13.48
2022-08-26T15:22:11.968Z,16.83
2022-08-26T15:24:38.525Z,20.88
2022-08-26T15:27:05.173Z,18.30
2022-08-26T15:29:33.219Z,20.48
2022-08-26T15:32:03.461Z,19.20
2022-08-26T15:34:30.294Z,16.65
2022-08-26T15:36:56.821Z,16.55
2022-08-26T15:39:24.028Z,15.63
2022-08-26T15:41:50.740Z,14.18
2022-08-26T15:44:17.293Z,14.20
2022-08-26T15:46:47.184Z,13.00
2022-08-26T15:49:17.542Z,13.07
2022-08-26T15:51:46.345Z,12.10
2022-08-26T15:54:13.607Z,12.07
2022-08-26T15:56:40.136Z,11.10
2022-08-26T15:59:07.367Z,9.35
2022-08-26T16:01:34.071Z,10.85
2022-08-26T16:04:02.704Z,14.23
2022-08-26T16:06:31.148Z,13.93
2022-08-26T16:08:58.357Z,13.13
2022-08-26T16:11:25.512Z,12.35
2022-08-26T16:13:52.238Z,12.35
2022-08-26T16:16:19.025Z,12.95
2022-08-26T16:18:45.679Z,12.52
2022-08-26T16:21:16.660Z,13.05
2022-08-26T16:23:45.324Z,13.07
2022-08-26T16:26:14.977Z,11.20
2022-08-26T16:28:41.535Z,11.90
2022-08-26T16:31:10.765Z,12.23
2022-08-26T16:33:37.354Z,11.65
2022-08-26T16:36:04.071Z,11.93
2022-08-26T16:38:32.289Z,12.32
2022-08-26T16:40:58.942Z,12.73
2022-08-26T16:43:25.495Z,11.90
2022-08-26T16:45:52.078Z,14.73
2022-08-26T16:48:18.620Z,13.88
2022-08-26T16:50:45.381Z,13.43
2022-08-26T16:55:46.252Z,12.80
2022-08-26T16:58:12.801Z,12.60
2022-08-26T17:00:39.353Z,13.15
2022-08-26T17:03:05.943Z,13.38
2022-08-26T17:05:32.522Z,12.02
2022-08-26T17:08:00.125Z,13.63
2022-08-26T17:10:28.560Z,13.35
2022-08-26T17:12:57.174Z,13.52
2022-08-26T17:15:24.376Z,12.95
2022-08-26T17:17:51.353Z,11.98
2022-08-26T17:20:18.581Z,12.57
2022-08-26T17:22:47.367Z,12.52
2022-08-26T17:25:16.418Z,12.68
2022-08-26T17:27:43.419Z,13.07
2022-08-26T17:30:12.614Z,12.55
2022-08-26T17:32:39.242Z,11.73
2022-08-26T17:35:06.190Z,12.75
2022-08-26T17:37:32.815Z,11.85
2022-08-26T17:39:59.386Z,12.02
2022-08-26T17:42:31.831Z,12.25
2022-08-26T17:44:58.521Z,13.18
2022-08-26T17:47:26.501Z,13.07
2022-08-26T17:49:53.032Z,12.25
2022-08-26T17:52:19.635Z,14.20
2022-08-26T17:54:46.142Z,14.00
2022-08-26T17:57:12.669Z,15.85
2022-08-26T17:59:39.174Z,15.35
2022-08-26T18:02:07.865Z,16.42
2022-08-26T18:04:35.741Z,15.82
2022-08-26T18:07:02.297Z,15.85
2022-08-26T18:09:29.354Z,12.75
2022-08-26T18:11:55.879Z,13.40
2022-08-26T18:14:22.397Z,14.05
2022-08-26T18:16:49.279Z,13.20
2022-08-26T18:19:15.818Z,13.38
2022-08-26T18:21:44.014Z,11.70
2022-08-26T18:24:14.070Z,12.07
2022-08-26T18:26:42.321Z,10.90
2022-08-26T18:29:08.853Z,12.50
2022-08-26T18:31:35.438Z,10.80
2022-08-26T18:34:02.872Z,11.65
2022-08-26T18:36:32.778Z,11.05
2022-08-26T18:39:00.910Z,11.65
2022-08-26T18:41:31.161Z,11.23
2022-08-26T18:43:58.414Z,13.82
2022-08-26T18:46:27.322Z,11.98
2022-08-26T18:48:55.152Z,13.60
2022-08-26T18:51:24.739Z,13.32
2022-08-26T18:53:51.474Z,11.98
2022-08-26T18:56:19.630Z,12.18
2022-08-26T18:58:46.633Z,11.55
2022-08-26T19:01:13.457Z,9.88
2022-08-26T19:03:40.083Z,9.23
2022-08-26T19:06:07.121Z,9.45
2022-08-26T19:08:33.654Z,10.00
2022-08-26T19:11:00.728Z,9.02
2022-08-26T19:13:28.590Z,8.90
2022-08-26T19:15:55.146Z,8.68
2022-08-26T19:18:21.659Z,9.45
2022-08-26T19:20:48.168Z,9.68
2022-08-26T19:23:31.074Z,10.38
2022-08-26T19:25:58.679Z,9.80
2022-08-26T19:28:25.225Z,9.57
2022-08-26T19:30:54.763Z,10.95
2022-08-26T19:33:21.674Z,10.38
2022-08-26T19:35:48.204Z,10.98
2022-08-26T19:38:14.751Z,10.35
2022-08-26T19:40:41.503Z,11.30
2022-08-26T19:43:08.735Z,10.98
2022-08-26T19:45:38.740Z,11.80
2022-08-26T19:48:06.740Z,9.93
2022-08-26T19:50:34.486Z,12.23
2022-08-26T19:53:01.611Z,11.38
2022-08-26T19:55:28.132Z,12.20
2022-08-26T19:57:54.765Z,11.30
2022-08-26T20:00:24.512Z,10.65
2022-08-26T20:02:51.520Z,11.00
2022-08-26T20:05:21.640Z,10.40
2022-08-26T20:07:48.896Z,9.95
2022-08-26T20:10:17.813Z,11.05
2022-08-26T20:12:44.406Z,9.80
2022-08-26T20:15:12.867Z,10.98
2022-08-26T20:17:40.230Z,10.23
2022-08-26T20:20:14.710Z,9.25
2022-08-26T20:22:57.410Z,10.52
2022-08-26T20:25:24.054Z,10.07
2022-08-26T20:27:50.649Z,10.32
2022-08-26T20:30:17.291Z,9.75
2022-08-26T20:32:43.815Z,10.35
2022-08-26T20:35:12.941Z,9.65
2022-08-26T20:37:40.020Z,10.02
2022-08-26T20:40:10.263Z,9.50
2022-08-26T20:42:36.808Z,9.57
2022-08-26T20:45:04.155Z,9.90
2022-08-26T20:47:30.732Z,9.52
2022-08-26T20:49:57.392Z,10.07
2022-08-26T20:52:23.933Z,9.98
2022-08-26T20:54:50.454Z,9.55
2022-08-26T20:57:18.301Z,10.85
2022-08-26T20:59:44.795Z,10.68
2022-08-26T21:02:11.301Z,10.57
2022-08-26T21:04:37.840Z,9.60
2022-08-26T21:07:04.464Z,9.00
2022-08-26T21:09:32.557Z,8.60
2022-08-26T21:11:59.066Z,9.93
2022-08-26T21:14:26.941Z,9.90
2022-08-26T21:16:53.672Z,9.75
2022-08-26T21:19:20.358Z,9.40
2022-08-26T21:21:48.513Z,9.77
2022-08-26T21:24:15.436Z,10.23
2022-08-26T21:26:42.472Z,10.27
2022-08-26T21:29:09.104Z,9.85
2022-08-26T21:31:40.954Z,10.27
2022-08-26T21:34:11.513Z,9.65
2022-08-26T21:36:38.108Z,10.10
2022-08-26T21:39:09.300Z,8.07
2022-08-26T21:41:38.338Z,8.88
2022-08-26T21:44:04.826Z,10.00
2022-08-26T21:46:31.691Z,8.93
2022-08-26T21:49:01.076Z,9.07
2022-08-26T21:51:29.598Z,8.77
2022-08-26T21:53:56.901Z,9.82
2022-08-26T21:56:26.189Z,9.48
2022-08-26T21:58:53.424Z,9.93
2022-08-26T22:01:22.135Z,10.32
2022-08-26T22:03:49.593Z,10.02
2022-08-26T22:06:19.779Z,10.05
2022-08-26T22:08:46.658Z,10.07
2022-08-26T22:11:13.518Z,10.10
2022-08-26T22:13:42.256Z,10.18
2022-08-26T22:16:09.488Z,10.43
2022-08-26T22:18:36.440Z,9.98
2022-08-26T22:21:06.033Z,10.45
2022-08-26T22:23:34.459Z,10.52
2022-08-26T22:26:01.236Z,9.70
2022-08-26T22:28:28.150Z,10.50
2022-08-26T22:30:54.959Z,11.10
2022-08-26T22:33:22.319Z,12.13
2022-08-26T22:35:49.924Z,11.25
2022-08-26T22:38:17.394Z,11.50
2022-08-26T22:40:46.858Z,11.70
2022-08-26T22:43:14.274Z,11.77
2022-08-26T22:45:41.454Z,14.07
2022-08-26T22:48:09.464Z,13.38
2022-08-26T22:50:36.491Z,11.98
2022-08-26T22:53:03.556Z,11.30
2022-08-26T22:55:30.256Z,11.93
2022-08-26T22:57:58.134Z,13.98
2022-08-26T23:00:32.028Z,12.23
2022-08-26T23:02:59.967Z,12.80
2022-08-26T23:05:26.512Z,13.18
2022-08-26T23:07:53.220Z,12.75
2022-08-26T23:10:19.941Z,11.77
2022-08-26T23:12:46.463Z,12.23
2022-08-26T23:15:14.477Z,12.23
2022-08-26T23:17:42.844Z,11.10
2022-08-26T23:20:11.540Z,12.38
2022-08-26T23:22:39.018Z,12.27
2022-08-26T23:25:07.997Z,11.85
2022-08-26T23:27:35.378Z,11.90
2022-08-26T23:30:01.889Z,10.45
2022-08-26T23:32:29.767Z,11.63
2022-08-26T23:34:56.269Z,10.75
2022-08-26T23:37:23.146Z,10.75
2022-08-26T23:39:51.730Z,10.30
2022-08-26T23:42:18.418Z,10.88
2022-08-26T23:44:44.966Z,9.63
2022-08-26T23:47:12.048Z,10.18
2022-08-26T23:49:40.420Z,9.88
2022-08-26T23:52:07.634Z,9.57
2022-08-26T23:54:34.220Z,8.55
2022-08-26T23:57:00.765Z,10.00
2022-08-26T23:59:27.291Z,9.85
